createdAt,value
2023-12-27T00:01:10.866Z,89.60
2023-12-27T00:03:56.241Z,90.50
2023-12-27T00:06:42.027Z,90.90
2023-12-27T00:09:27.265Z,90.80
2023-12-27T00:12:14.555Z,91.00
2023-12-27T00:15:00.073Z,91.00
2023-12-27T00:17:45.674Z,91.10
2023-12-27T00:20:31.672Z,91.50
2023-12-27T00:23:17.213Z,91.50
2023-12-27T00:26:02.525Z,91.70
2023-12-27T00:28:48.156Z,91.10
2023-12-27T00:31:33.673Z,91.90
2023-12-27T00:34:19.219Z,92.40
2023-12-27T00:37:05.021Z,92.20
2023-12-27T00:39:50.553Z,92.00
2023-12-27T00:42:36.114Z,92.50
2023-12-27T00:45:21.688Z,92.70
2023-12-27T00:48:07.649Z,93.20
2023-12-27T00:50:53.207Z,92.90
2023-12-27T00:53:38.788Z,92.90
2023-12-27T00:56:24.340Z,92.50
2023-12-27T00:59:09.791Z,92.10
2023-12-27T01:01:55.361Z,92.80
2023-12-27T01:04:41.049Z,92.80
2023-12-27T01:07:26.937Z,92.70
2023-12-27T01:10:12.744Z,93.40
2023-12-27T01:12:58.531Z,93.20
2023-12-27T01:15:43.950Z,93.20
2023-12-27T01:18:29.559Z,93.10
2023-12-27T01:21:15.280Z,93.50
2023-12-27T01:24:00.959Z,93.50
2023-12-27T01:26:46.365Z,92.70
2023-12-27T01:29:33.904Z,93.20
2023-12-27T01:32:19.272Z,92.70
2023-12-27T01:35:05.347Z,93.20
2023-12-27T01:37:51.165Z,93.40
2023-12-27T01:40:36.689Z,94.10
2023-12-27T01:43:22.202Z,93.40
2023-12-27T01:46:08.412Z,93.60
2023-12-27T01:48:54.110Z,93.80
2023-12-27T01:51:39.689Z,93.70
2023-12-27T01:54:25.565Z,93.90
2023-12-27T01:57:11.263Z,93.90
2023-12-27T01:59:56.522Z,94.30
2023-12-27T02:02:42.768Z,93.80
2023-12-27T02:05:28.102Z,94.50
2023-12-27T02:08:15.301Z,94.30
2023-12-27T02:11:01.365Z,94.10
2023-12-27T02:13:46.669Z,94.50
2023-12-27T02:16:32.028Z,94.90
2023-12-27T02:19:24.413Z,94.30
2023-12-27T02:22:16.109Z,94.80
2023-12-27T02:25:01.756Z,94.90
2023-12-27T02:27:47.549Z,95.20
2023-12-27T02:30:37.399Z,94.80
2023-12-27T02:33:23.201Z,95.00
2023-12-27T02:36:08.663Z,94.80
2023-12-27T02:38:54.110Z,95.30
2023-12-27T02:41:40.685Z,95.20
2023-12-27T02:44:27.407Z,95.70
2023-12-27T02:47:13.355Z,95.40
2023-12-27T02:49:59.024Z,95.50
2023-12-27T02:52:44.365Z,95.20
2023-12-27T02:55:29.810Z,95.40
2023-12-27T02:58:15.708Z,95.80
2023-12-27T03:01:01.274Z,95.80
2023-12-27T03:03:46.844Z,95.90
2023-12-27T03:06:32.297Z,96.20
2023-12-27T03:09:18.053Z,96.00
2023-12-27T03:12:03.985Z,95.70
2023-12-27T03:14:51.330Z,95.80
2023-12-27T03:17:36.973Z,95.50
2023-12-27T03:20:22.292Z,95.70
2023-12-27T03:23:07.762Z,94.60
2023-12-27T03:25:54.950Z,95.50
2023-12-27T03:28:41.207Z,95.50
2023-12-27T03:31:30.010Z,95.70
2023-12-27T03:34:15.556Z,96.50
2023-12-27T03:37:01.030Z,96.50
2023-12-27T03:39:47.376Z,96.70
2023-12-27T03:42:32.814Z,96.60
2023-12-27T03:45:21.161Z,96.80
2023-12-27T03:48:07.006Z,96.90
2023-12-27T03:50:52.232Z,97.10
2023-12-27T03:53:37.722Z,97.50
2023-12-27T03:56:23.196Z,97.50
2023-12-27T03:59:08.507Z,97.00
2023-12-27T04:01:54.066Z,97.10
2023-12-27T04:04:40.056Z,97.40
2023-12-27T04:07:25.270Z,97.50
2023-12-27T04:10:10.832Z,97.50
2023-12-27T04:12:56.816Z,97.70
2023-12-27T04:15:42.337Z,97.90
2023-12-27T04:18:27.804Z,98.30
2023-12-27T04:21:13.341Z,98.20
2023-12-27T04:23:58.850Z,98.20
2023-12-27T04:26:44.550Z,97.90
2023-12-27T04:29:29.921Z,98.10
2023-12-27T04:32:15.328Z,98.40
2023-12-27T04:35:00.744Z,98.20
2023-12-27T04:37:46.190Z,98.20
2023-12-27T04:40:31.646Z,98.30
2023-12-27T04:43:17.667Z,97.90
2023-12-27T04:46:08.195Z,97.90
2023-12-27T04:48:54.021Z,98.10
2023-12-27T04:51:40.393Z,97.90
2023-12-27T04:54:26.015Z,97.90
2023-12-27T04:57:11.247Z,98.00
2023-12-27T04:59:56.821Z,97.90
2023-12-27T05:02:42.359Z,97.70
2023-12-27T05:05:27.954Z,97.80
2023-12-27T05:08:13.709Z,97.70
2023-12-27T05:10:58.993Z,98.10
2023-12-27T05:13:45.243Z,97.90
2023-12-27T05:16:30.670Z,97.70
2023-12-27T05:19:16.332Z,97.40
2023-12-27T05:22:01.673Z,97.10
2023-12-27T05:24:47.434Z,97.60
2023-12-27T05:27:33.028Z,97.50
2023-12-27T05:30:18.492Z,97.70
2023-12-27T05:33:04.976Z,97.70
2023-12-27T05:35:50.462Z,97.80
2023-12-27T05:38:36.328Z,97.70
2023-12-27T05:41:26.892Z,97.60
2023-12-27T05:44:12.430Z,97.50
2023-12-27T05:46:58.250Z,97.50
2023-12-27T05:49:43.820Z,97.60
2023-12-27T05:52:29.165Z,97.60
2023-12-27T05:55:15.001Z,97.40
2023-12-27T05:58:00.708Z,97.50
2023-12-27T06:00:46.190Z,97.60
2023-12-27T06:03:32.086Z,97.90
2023-12-27T06:06:17.407Z,97.90
2023-12-27T06:09:03.215Z,98.30
2023-12-27T06:11:49.268Z,98.30
2023-12-27T06:14:34.909Z,98.50
2023-12-27T06:17:20.402Z,98.50
2023-12-27T06:20:08.102Z,98.20
2023-12-27T06:22:53.347Z,98.00
2023-12-27T06:25:38.824Z,97.90
2023-12-27T06:28:24.219Z,97.90
2023-12-27T06:31:10.144Z,98.20
2023-12-27T06:33:55.970Z,98.20
2023-12-27T06:36:41.539Z,98.30
2023-12-27T06:39:27.030Z,98.40
2023-12-27T06:42:12.471Z,98.40
2023-12-27T06:44:58.142Z,98.30
2023-12-27T06:47:43.370Z,98.30
2023-12-27T06:50:29.085Z,98.60
2023-12-27T06:53:14.297Z,98.50
2023-12-27T06:56:01.866Z,98.80
2023-12-27T06:58:47.318Z,98.70
2023-12-27T07:01:32.853Z,98.20
2023-12-27T07:04:18.191Z,98.30
2023-12-27T07:07:04.165Z,98.20
2023-12-27T07:09:49.486Z,98.20
2023-12-27T07:12:35.179Z,98.30
2023-12-27T07:15:20.894Z,98.40
2023-12-27T07:18:07.546Z,98.40
2023-12-27T07:20:53.204Z,98.50
2023-12-27T07:23:39.178Z,98.60
2023-12-27T07:26:24.760Z,98.60
2023-12-27T07:29:10.420Z,98.70
2023-12-27T07:31:56.174Z,98.70
2023-12-27T07:34:42.552Z,98.40
2023-12-27T07:37:28.372Z,97.90
2023-12-27T07:40:15.891Z,97.80
2023-12-27T07:43:03.178Z,97.50
2023-12-27T07:45:49.362Z,97.90
2023-12-27T07:48:34.974Z,97.90
2023-12-27T07:51:20.608Z,97.90
2023-12-27T07:54:05.968Z,97.80
2023-12-27T07:56:51.404Z,97.60
2023-12-27T07:59:37.075Z,97.00
2023-12-27T08:02:22.845Z,96.50
2023-12-27T08:05:08.510Z,96.40
2023-12-27T08:07:54.165Z,96.10
2023-12-27T08:10:39.620Z,96.20
2023-12-27T08:13:25.128Z,96.30
2023-12-27T08:16:10.553Z,96.30
2023-12-27T08:18:56.166Z,96.40
2023-12-27T08:21:41.802Z,96.40
2023-12-27T08:24:27.238Z,96.10
2023-12-27T08:27:12.889Z,96.00
2023-12-27T08:29:58.374Z,96.10
2023-12-27T08:32:43.982Z,96.20
2023-12-27T08:35:29.365Z,95.80
2023-12-27T08:38:14.917Z,96.30
2023-12-27T08:41:00.730Z,96.60
2023-12-27T08:43:46.529Z,96.50
2023-12-27T08:50:58.703Z,96.10
2023-12-27T08:53:44.573Z,96.20
2023-12-27T08:56:30.071Z,96.30
2023-12-27T08:59:15.693Z,96.20
2023-12-27T09:02:01.094Z,96.00
2023-12-27T09:04:46.666Z,96.20
2023-12-27T09:07:32.326Z,95.90
2023-12-27T09:10:17.820Z,95.30
2023-12-27T09:13:05.039Z,94.80
2023-12-27T09:15:50.332Z,94.60
2023-12-27T09:18:35.868Z,94.20
2023-12-27T09:21:21.343Z,94.40
2023-12-27T09:24:06.714Z,94.10
2023-12-27T09:26:52.255Z,93.70
2023-12-27T09:29:37.709Z,93.60
2023-12-27T09:32:23.232Z,93.70
2023-12-27T09:35:08.853Z,93.50
2023-12-27T09:37:55.047Z,93.00
2023-12-27T09:40:41.041Z,92.30
2023-12-27T09:43:26.357Z,92.30
2023-12-27T09:46:14.536Z,91.90
2023-12-27T09:49:00.437Z,92.40
2023-12-27T09:51:48.614Z,92.50
2023-12-27T09:54:34.414Z,92.50
2023-12-27T09:57:21.427Z,92.80
2023-12-27T10:00:10.734Z,92.30
2023-12-27T10:03:00.143Z,91.30
2023-12-27T10:05:53.259Z,91.80
2023-12-27T10:08:42.750Z,92.00
2023-12-27T10:11:29.275Z,91.60
2023-12-27T10:14:15.213Z,91.70
2023-12-27T10:17:00.624Z,91.70
2023-12-27T10:19:46.393Z,92.20
2023-12-27T10:22:32.989Z,91.80
2023-12-27T10:25:19.928Z,91.60
2023-12-27T10:28:05.245Z,91.90
2023-12-27T10:30:52.618Z,92.10
2023-12-27T10:33:46.188Z,92.10
2023-12-27T10:36:32.167Z,91.80
2023-12-27T10:39:19.304Z,91.60
2023-12-27T10:42:08.189Z,91.30
2023-12-27T10:44:53.637Z,91.40
2023-12-27T10:47:40.068Z,91.40
2023-12-27T10:50:28.139Z,91.50
2023-12-27T10:53:19.368Z,91.20
2023-12-27T10:56:05.281Z,90.50
2023-12-27T10:58:53.081Z,90.40
2023-12-27T11:01:40.609Z,90.60
2023-12-27T11:04:27.491Z,90.40
2023-12-27T11:07:14.972Z,90.40
2023-12-27T11:10:07.145Z,90.20
2023-12-27T11:12:59.101Z,89.80
2023-12-27T11:15:47.203Z,89.70
2023-12-27T11:18:36.278Z,90.00
2023-12-27T11:21:21.997Z,90.20
2023-12-27T11:24:08.028Z,90.20
2023-12-27T11:27:03.710Z,90.00
2023-12-27T11:29:49.959Z,89.70
2023-12-27T11:32:37.438Z,89.70
2023-12-27T11:35:29.544Z,89.50
2023-12-27T11:38:26.380Z,89.70
2023-12-27T11:41:11.774Z,89.80
2023-12-27T11:44:07.696Z,89.50
2023-12-27T11:46:54.177Z,89.40
2023-12-27T11:49:39.426Z,89.40
2023-12-27T11:52:25.012Z,88.80
2023-12-27T11:55:22.279Z,88.70
2023-12-27T11:58:07.670Z,88.70
2023-12-27T12:00:53.209Z,88.60
2023-12-27T12:03:39.381Z,87.70
2023-12-27T12:06:59.958Z,88.00
2023-12-27T12:09:46.966Z,88.20
2023-12-27T12:12:32.885Z,87.80
2023-12-27T12:15:23.065Z,87.90
2023-12-27T12:18:09.064Z,87.50
2023-12-27T12:20:56.425Z,87.80
2023-12-27T12:23:48.628Z,87.80
2023-12-27T12:26:34.447Z,88.00
2023-12-27T12:29:19.730Z,88.00
2023-12-27T12:32:05.680Z,88.00
2023-12-27T12:34:51.404Z,87.60
2023-12-27T12:37:38.742Z,87.50
2023-12-27T12:40:24.322Z,88.20
2023-12-27T12:43:10.179Z,87.80
2023-12-27T12:45:58.580Z,87.60
2023-12-27T12:48:45.150Z,87.90
2023-12-27T12:51:30.719Z,87.90
2023-12-27T12:54:16.494Z,87.40
2023-12-27T12:57:02.645Z,87.70
2023-12-27T12:59:49.897Z,88.40
2023-12-27T13:02:35.602Z,88.20
2023-12-27T13:05:21.848Z,88.40
2023-12-27T13:08:07.677Z,88.30
2023-12-27T13:10:52.970Z,88.50
2023-12-27T13:13:40.116Z,88.90
2023-12-27T13:16:25.532Z,88.70
2023-12-27T13:19:11.210Z,88.60
2023-12-27T13:21:57.173Z,88.60
2023-12-27T13:24:43.348Z,89.00
2023-12-27T13:27:28.825Z,89.00
2023-12-27T13:30:14.816Z,88.90
2023-12-27T13:33:02.636Z,89.30
2023-12-27T13:35:48.535Z,89.80
2023-12-27T13:38:34.129Z,90.40
2023-12-27T13:41:19.855Z,90.90
2023-12-27T13:44:05.551Z,91.80
2023-12-27T13:46:51.236Z,92.30
2023-12-27T13:49:37.099Z,93.10
2023-12-27T13:52:22.486Z,93.60
2023-12-27T13:55:07.919Z,94.10
2023-12-27T13:57:53.629Z,94.60
2023-12-27T14:00:39.156Z,95.00
2023-12-27T14:03:24.750Z,95.50
2023-12-27T14:06:12.738Z,96.10
2023-12-27T14:08:59.490Z,96.10
2023-12-27T14:11:45.523Z,96.50
2023-12-27T14:14:31.505Z,97.00
2023-12-27T14:17:17.079Z,97.20
2023-12-27T14:20:02.698Z,97.30
2023-12-27T14:22:48.512Z,97.60
2023-12-27T14:25:36.402Z,97.90
2023-12-27T14:28:22.231Z,98.00
2023-12-27T14:31:07.908Z,98.20
2023-12-27T14:33:54.026Z,98.40
2023-12-27T14:36:41.835Z,98.40
2023-12-27T14:39:28.363Z,98.20
2023-12-27T14:42:14.200Z,98.30
2023-12-27T14:45:00.065Z,98.00
2023-12-27T14:47:46.037Z,98.00
2023-12-27T14:50:32.467Z,97.90
2023-12-27T14:53:17.649Z,98.00
2023-12-27T14:56:03.242Z,97.80
2023-12-27T14:58:48.651Z,97.60
2023-12-27T15:01:34.690Z,97.50
2023-12-27T15:04:19.956Z,97.30
2023-12-27T15:07:05.233Z,97.00
2023-12-27T15:09:51.276Z,96.60
2023-12-27T15:12:36.833Z,96.50
2023-12-27T15:15:23.324Z,96.60
2023-12-27T15:18:09.110Z,96.70
2023-12-27T15:20:54.657Z,97.00
2023-12-27T15:23:41.190Z,96.70
2023-12-27T15:26:29.020Z,96.20
2023-12-27T15:29:14.311Z,96.20
2023-12-27T15:31:59.512Z,96.00
2023-12-27T15:34:45.244Z,96.10
2023-12-27T15:37:31.032Z,95.70
2023-12-27T15:40:17.410Z,95.80
2023-12-27T15:43:02.738Z,95.70
2023-12-27T15:45:48.196Z,95.40
2023-12-27T15:48:33.865Z,95.50
2023-12-27T15:51:24.864Z,95.70
2023-12-27T15:54:10.380Z,95.70
2023-12-27T15:56:56.934Z,95.40
2023-12-27T15:59:42.261Z,95.30
2023-12-27T16:02:27.741Z,95.50
2023-12-27T16:05:13.352Z,95.70
2023-12-27T16:08:01.132Z,95.50
2023-12-27T16:10:46.745Z,95.30
2023-12-27T16:13:32.057Z,95.50
2023-12-27T16:16:18.624Z,95.70
2023-12-27T16:19:04.747Z,95.70
2023-12-27T16:21:50.580Z,95.70
2023-12-27T16:24:35.996Z,95.60
2023-12-27T16:27:21.490Z,95.80
2023-12-27T16:30:09.398Z,95.80
2023-12-27T16:33:01.422Z,95.80
2023-12-27T16:35:47.242Z,95.90
2023-12-27T16:38:33.634Z,96.20
2023-12-27T16:41:19.182Z,96.20
2023-12-27T16:44:04.925Z,96.20
2023-12-27T16:46:50.806Z,96.50
2023-12-27T16:49:36.195Z,96.30
2023-12-27T16:52:22.331Z,96.20
2023-12-27T16:55:07.725Z,95.80
2023-12-27T16:57:54.715Z,95.50
2023-12-27T17:00:40.198Z,95.20
2023-12-27T17:03:25.803Z,95.10
2023-12-27T17:06:12.001Z,95.10
2023-12-27T17:08:57.465Z,95.30
2023-12-27T17:11:43.018Z,95.50
2023-12-27T17:14:28.277Z,95.60
2023-12-27T17:17:13.834Z,95.80
2023-12-27T17:20:01.394Z,95.40
2023-12-27T17:22:47.129Z,95.50
2023-12-27T17:25:33.254Z,95.40
2023-12-27T17:28:18.920Z,95.70
2023-12-27T17:31:04.680Z,95.60
2023-12-27T17:33:51.218Z,95.70
2023-12-27T17:36:36.518Z,96.00
2023-12-27T17:39:22.639Z,96.20
2023-12-27T17:42:08.623Z,96.10
2023-12-27T17:44:54.315Z,96.10
2023-12-27T17:47:40.924Z,96.10
2023-12-27T17:50:26.933Z,96.20
2023-12-27T17:53:15.608Z,96.20
2023-12-27T17:56:01.102Z,96.20
2023-12-27T17:58:47.684Z,96.30
2023-12-27T18:01:33.043Z,96.40
2023-12-27T18:04:20.114Z,96.00
2023-12-27T18:07:08.681Z,96.10
2023-12-27T18:09:54.285Z,96.00
2023-12-27T18:12:39.752Z,96.00
2023-12-27T18:15:25.561Z,95.80
2023-12-27T18:18:11.299Z,95.90
2023-12-27T18:20:57.090Z,96.00
2023-12-27T18:23:42.572Z,96.10
2023-12-27T18:26:36.206Z,96.20
2023-12-27T18:29:28.386Z,95.90
2023-12-27T18:32:13.866Z,96.40
2023-12-27T18:34:59.549Z,96.30
2023-12-27T18:37:45.044Z,95.80
2023-12-27T18:40:30.621Z,95.70
2023-12-27T18:43:16.037Z,96.10
2023-12-27T18:46:04.965Z,96.00
2023-12-27T18:48:50.517Z,96.00
2023-12-27T18:51:37.350Z,96.10
2023-12-27T18:54:23.236Z,95.90
2023-12-27T18:57:09.354Z,95.90
2023-12-27T18:59:55.293Z,95.40
2023-12-27T19:02:40.815Z,95.80
2023-12-27T19:05:26.289Z,95.80
2023-12-27T19:08:11.613Z,95.50
2023-12-27T19:10:57.171Z,95.80
2023-12-27T19:13:43.048Z,95.10
2023-12-27T19:16:29.350Z,95.00
2023-12-27T19:19:18.917Z,95.20
2023-12-27T19:22:05.520Z,94.90
2023-12-27T19:24:51.298Z,94.60
2023-12-27T19:27:37.129Z,94.20
2023-12-27T19:30:22.721Z,94.40
2023-12-27T19:33:08.452Z,94.20
2023-12-27T19:35:53.916Z,93.70
2023-12-27T19:38:39.560Z,93.70
2023-12-27T19:41:25.006Z,93.60
2023-12-27T19:44:10.430Z,94.00
2023-12-27T19:46:55.927Z,93.30
2023-12-27T19:49:42.049Z,93.20
2023-12-27T19:52:28.411Z,93.10
2023-12-27T19:55:14.181Z,92.80
2023-12-27T19:57:59.706Z,92.30
2023-12-27T20:00:46.938Z,92.30
2023-12-27T20:03:32.716Z,91.40
2023-12-27T20:06:18.391Z,91.00
2023-12-27T20:09:05.259Z,90.40
2023-12-27T20:11:51.583Z,91.00
2023-12-27T20:14:37.000Z,89.80
2023-12-27T20:17:22.951Z,89.80
2023-12-27T20:20:08.827Z,89.80
2023-12-27T20:22:54.867Z,90.00
2023-12-27T20:25:41.271Z,90.40
2023-12-27T20:28:26.749Z,89.90
2023-12-27T20:31:12.319Z,89.80
2023-12-27T20:33:57.731Z,90.10
2023-12-27T20:36:43.262Z,88.90
2023-12-27T20:39:29.989Z,89.50
2023-12-27T20:42:15.361Z,89.30
2023-12-27T20:45:00.887Z,88.90
2023-12-27T20:47:46.392Z,88.60
2023-12-27T20:50:31.828Z,89.00
2023-12-27T20:53:17.476Z,89.20
2023-12-27T20:56:03.741Z,89.00
2023-12-27T20:58:48.942Z,88.70
2023-12-27T21:01:41.991Z,88.30
2023-12-27T21:04:27.754Z,88.90
2023-12-27T21:07:13.630Z,88.90
2023-12-27T21:10:00.017Z,89.10
2023-12-27T21:12:45.602Z,89.00
2023-12-27T21:15:32.304Z,89.10
2023-12-27T21:18:17.896Z,89.00
2023-12-27T21:21:03.248Z,89.20
2023-12-27T21:23:49.180Z,88.30
2023-12-27T21:26:34.467Z,88.10
2023-12-27T21:29:21.289Z,87.60
2023-12-27T21:32:07.240Z,87.60
2023-12-27T21:34:52.524Z,86.30
2023-12-27T21:37:38.079Z,86.30
2023-12-27T21:40:23.741Z,85.70
2023-12-27T21:43:12.369Z,85.20
2023-12-27T21:45:57.807Z,83.90
2023-12-27T21:48:43.623Z,82.60
2023-12-27T21:51:29.402Z,82.70
2023-12-27T21:54:14.885Z,80.50
2023-12-27T21:57:00.317Z,79.90
2023-12-27T21:59:45.881Z,79.90
2023-12-27T22:02:31.462Z,79.70
2023-12-27T22:05:18.502Z,80.40
2023-12-27T22:08:07.877Z,79.30
2023-12-27T22:10:56.258Z,79.80
2023-12-27T22:13:43.666Z,79.00
2023-12-27T22:16:29.147Z,78.20
2023-12-27T22:19:14.698Z,77.50
2023-12-27T22:22:00.752Z,76.70
2023-12-27T22:24:46.444Z,76.50
2023-12-27T22:27:32.078Z,76.60
2023-12-27T22:30:17.695Z,75.70
2023-12-27T22:33:03.193Z,75.20
2023-12-27T22:35:48.532Z,75.70
2023-12-27T22:38:33.955Z,75.70
2023-12-27T22:41:19.986Z,74.60
2023-12-27T22:44:05.481Z,75.20
2023-12-27T22:46:51.000Z,75.50
2023-12-27T22:49:36.757Z,75.60
2023-12-27T22:52:22.346Z,74.60
2023-12-27T22:55:08.278Z,74.30
2023-12-27T22:57:53.755Z,74.60
2023-12-27T23:00:39.352Z,74.30
2023-12-27T23:03:24.992Z,73.90
2023-12-27T23:06:12.111Z,73.40
2023-12-27T23:08:57.659Z,74.10
2023-12-27T23:11:46.284Z,74.20
2023-12-27T23:14:31.825Z,73.70
2023-12-27T23:17:20.348Z,73.40
2023-12-27T23:20:06.672Z,72.80
2023-12-27T23:22:52.193Z,72.90
2023-12-27T23:25:38.264Z,73.50
2023-12-27T23:28:23.388Z,73.20
2023-12-27T23:31:09.409Z,72.80
2023-12-27T23:33:55.028Z,72.80
2023-12-27T23:36:40.393Z,73.20
2023-12-27T23:39:25.864Z,73.70
2023-12-27T23:42:11.865Z,73.70
2023-12-27T23:44:57.344Z,74.20
2023-12-27T23:47:43.069Z,74.40
2023-12-27T23:50:28.365Z,74.00
2023-12-27T23:53:13.853Z,74.40
2023-12-27T23:55:59.244Z,74.40
2023-12-27T23:58:44.706Z,74.70
